Time;durP1;ratioP1;P1;durP2;ratioP2;P2;SDS_P1;SDS_P2;PMS_P1;PMS_P2;Temp;Humidity;BMP_temperature;BMP_pressure;BME280_temperature;BME280_humidity;BME280_pressure;Samples;Min_cycle;Max_cycle;Signal;HPM_P1;HPM_P2
2021/01/11 00:00:39;;;;;;;2.60;1.90;;;;;;;25.94;28.97;97049.25;5016245;28;20044;-41
2021/01/11 00:03:04;;;;;;;2.38;1.70;;;;;;;25.94;28.91;97044.84;5017553;28;20495;-40
2021/01/11 00:05:30;;;;;;;1.50;1.40;;;;;;;25.96;28.87;97050.88;5019594;28;20192;-39
2021/01/11 00:07:55;;;;;;;1.70;1.60;;;;;;;25.96;28.71;97050.00;5021348;28;20041;-37
2021/01/11 00:10:22;;;;;;;2.63;1.80;;;;;;;25.96;28.73;97055.25;5020045;28;20490;-39
2021/01/11 00:12:47;;;;;;;2.55;1.73;;;;;;;25.95;28.79;97054.44;5018077;28;20049;-37
2021/01/11 00:15:15;;;;;;;3.13;1.90;;;;;;;25.95;28.81;97057.06;5017080;28;20746;-41
2021/01/11 00:17:42;;;;;;;2.25;1.70;;;;;;;25.96;28.74;97065.78;5021400;28;20032;-40
2021/01/11 00:20:07;;;;;;;2.13;1.55;;;;;;;25.96;28.72;97055.25;5021455;28;20037;-39
2021/01/11 00:22:34;;;;;;;2.30;1.58;;;;;;;25.95;28.73;97053.56;5035330;28;20060;-40
2021/01/11 00:24:59;;;;;;;4.63;1.63;;;;;;;25.91;28.90;97058.13;5023046;28;20128;-38
2021/01/11 00:27:25;;;;;;;2.33;1.77;;;;;;;25.93;28.59;97055.44;5020966;28;20045;-40
2021/01/11 00:29:51;;;;;;;3.72;1.98;;;;;;;25.93;28.56;97052.81;5020170;28;20743;-36
2021/01/11 00:32:18;;;;;;;3.83;1.75;;;;;;;25.93;28.64;97051.03;5017336;28;20434;-40
2021/01/11 00:34:44;;;;;;;2.45;1.67;;;;;;;25.96;28.60;97055.25;5021762;28;20041;-40
2021/01/11 00:37:10;;;;;;;2.58;1.95;;;;;;;25.98;28.53;97047.31;5016734;28;20103;-42
2021/01/11 00:39:35;;;;;;;2.85;1.98;;;;;;;25.96;28.43;97044.75;5019732;28;20095;-39
2021/01/11 00:42:01;;;;;;;2.22;1.65;;;;;;;25.98;28.40;97042.94;5021274;28;20653;-34
2021/01/11 00:44:27;;;;;;;2.42;1.90;;;;;;;26.00;28.36;97045.47;5020126;28;20029;-35
2021/01/11 00:46:54;;;;;;;2.70;1.90;;;;;;;26.00;28.47;97046.31;5019810;28;20567;-37
2021/01/11 00:49:20;;;;;;;3.90;2.13;;;;;;;26.02;28.30;97043.63;5016846;28;20046;-39
2021/01/11 00:51:46;;;;;;;2.28;1.92;;;;;;;26.02;28.34;97039.22;5018810;28;20032;-40
2021/01/11 00:54:11;;;;;;;2.03;1.50;;;;;;;25.98;28.31;97045.56;5034351;28;20575;-41
2021/01/11 00:56:37;;;;;;;2.95;1.77;;;;;;;26.00;28.37;97043.69;5017651;28;20063;-39
2021/01/11 00:59:02;;;;;;;3.90;1.75;;;;;;;25.98;28.50;97040.31;5022375;28;20030;-40
2021/01/11 01:01:27;;;;;;;2.65;2.05;;;;;;;26.00;28.36;97038.44;5011675;28;20056;-36
2021/01/11 01:03:53;;;;;;;2.55;1.88;;;;;;;26.04;28.40;97036.50;5013153;28;20120;-39
2021/01/11 01:06:21;;;;;;;3.17;1.95;;;;;;;26.02;28.34;97038.38;5018605;28;20094;-37
2021/01/11 01:08:46;;;;;;;4.25;2.08;;;;;;;26.00;28.35;97041.06;5015015;28;20046;-36
2021/01/11 01:11:12;;;;;;;2.92;1.98;;;;;;;26.02;28.30;97049.72;5020059;28;20037;-40
2021/01/11 01:13:38;;;;;;;2.95;2.13;;;;;;;26.01;28.33;97045.38;5020481;28;20049;-35
2021/01/11 01:16:04;;;;;;;2.25;1.90;;;;;;;25.99;28.29;97047.25;5014381;28;20056;-41
2021/01/11 01:18:30;;;;;;;3.17;2.13;;;;;;;25.96;28.46;97036.88;5018555;28;21848;-40
2021/01/11 01:20:56;;;;;;;2.00;1.80;;;;;;;26.04;28.15;97047.84;5017105;28;20052;-39
2021/01/11 01:23:21;;;;;;;3.72;2.00;;;;;;;26.02;28.07;97051.50;5021573;28;20038;-36
2021/01/11 01:25:51;;;;;;;2.70;1.92;;;;;;;26.00;28.24;97046.31;5016810;28;20045;-37
2021/01/11 01:28:16;;;;;;;2.10;1.70;;;;;;;26.01;28.14;97047.19;5015608;28;20223;-40
2021/01/11 01:30:42;;;;;;;2.47;1.77;;;;;;;25.99;28.26;97044.63;5014165;28;20503;-39
2021/01/11 01:33:08;;;;;;;3.45;2.10;;;;;;;26.00;28.18;97046.31;5016709;28;20675;-36
2021/01/11 01:35:33;;;;;;;2.92;2.00;;;;;;;25.97;28.26;97035.94;5017607;28;22049;-40
2021/01/11 01:37:59;;;;;;;1.73;1.60;;;;;;;25.96;28.09;97050.00;5016776;28;20041;-36
2021/01/11 01:40:25;;;;;;;2.58;1.90;;;;;;;25.94;28.26;97042.22;5015433;28;20033;-41
2021/01/11 01:42:51;;;;;;;2.05;1.85;;;;;;;25.95;28.22;97049.19;5010951;28;20048;-38
2021/01/11 01:45:19;;;;;;;3.67;2.00;;;;;;;25.93;28.12;97050.19;5012844;28;20049;-36
2021/01/11 01:47:44;;;;;;;3.13;2.17;;;;;;;25.94;28.29;97052.72;5031460;28;20038;-40
2021/01/11 01:50:10;;;;;;;2.60;1.90;;;;;;;25.93;28.22;97051.03;5018111;28;20056;-39
2021/01/11 01:52:36;;;;;;;1.70;1.60;;;;;;;25.93;28.20;97055.44;5032812;28;20033;-38
2021/01/11 01:55:03;;;;;;;2.20;2.00;;;;;;;25.91;28.08;97055.50;5014647;28;20402;-38
2021/01/11 01:57:28;;;;;;;2.63;1.80;;;;;;;25.91;28.24;97057.28;5015457;28;20036;-43
2021/01/11 01:59:54;;;;;;;2.83;2.00;;;;;;;25.88;28.13;97053.03;5012603;28;20045;-43
2021/01/11 02:02:19;;;;;;;3.42;1.90;;;;;;;25.87;28.04;97060.97;5017723;28;20048;-39
2021/01/11 02:04:45;;;;;;;2.88;2.00;;;;;;;25.86;28.25;97054.03;5016664;28;20045;-41
2021/01/11 02:07:20;;;;;;;2.55;2.03;;;;;;;25.88;28.12;97052.16;5029600;28;20534;-41
2021/01/11 02:10:13;;;;;;;2.13;1.92;;;;;;;25.85;28.48;97052.34;5020707;28;20033;-37
2021/01/11 02:13:06;;;;;;;2.20;1.80;;;;;;;25.86;28.18;97051.41;5033591;28;20045;-41
2021/01/11 02:16:10;;;;;;;2.55;1.90;;;;;;;25.83;28.16;97044.53;5014375;28;20034;-41
2021/01/11 02:18:47;;;;;;;1.90;1.70;;;;;;;25.83;28.25;97039.28;5012664;28;20498;-40
2021/01/11 02:21:28;;;;;;;4.97;2.03;;;;;;;25.82;28.32;97048.09;5018895;28;20026;-40
2021/01/11 02:24:06;;;;;;;2.13;1.70;;;;;;;25.85;28.21;97042.66;5014279;28;20037;-40
2021/01/11 02:26:53;;;;;;;2.00;1.73;;;;;;;25.83;28.20;97036.66;5032142;28;20021;-39
2021/01/11 02:29:50;;;;;;;1.92;1.60;;;;;;;25.83;27.96;97032.25;5018149;28;20017;-41
2021/01/11 02:32:16;;;;;;;2.30;1.70;;;;;;;25.80;28.33;97027.16;5028585;28;20030;-40
2021/01/11 02:34:42;;;;;;;2.03;1.80;;;;;;;25.79;28.27;97027.22;5028912;28;20040;-38
2021/01/11 02:37:07;;;;;;;2.50;1.70;;;;;;;25.79;28.39;97028.09;5015337;28;20045;-37
2021/01/11 02:39:33;;;;;;;1.80;1.60;;;;;;;25.80;28.15;97023.69;5028192;28;20037;-38
2021/01/11 02:41:58;;;;;;;2.35;1.70;;;;;;;25.80;28.15;97035.03;5016483;28;20044;-35
2021/01/11 02:44:24;;;;;;;3.53;1.40;;;;;;;25.78;28.16;97026.38;5022608;28;21182;-38
2021/01/11 02:46:51;;;;;;;2.83;1.60;;;;;;;25.76;28.34;97030.88;5028897;28;20045;-39
2021/01/11 02:49:24;;;;;;;2.10;1.83;;;;;;;25.73;28.20;97022.31;5013091;28;20087;-37
2021/01/11 02:51:59;;;;;;;2.10;1.77;;;;;;;25.74;28.38;97019.56;5012034;28;20536;-39
2021/01/11 02:54:37;;;;;;;2.13;1.67;;;;;;;25.72;28.34;97016.19;5007059;28;20033;-37
2021/01/11 02:57:22;;;;;;;2.58;1.88;;;;;;;25.71;28.31;97014.50;5027155;28;20025;-38
2021/01/11 02:59:51;;;;;;;2.58;1.88;;;;;;;25.70;28.26;97018.03;5014541;28;22526;-41
2021/01/11 03:02:17;;;;;;;1.98;1.77;;;;;;;25.66;28.48;97011.25;5011158;28;20589;-39
2021/01/11 03:04:43;;;;;;;1.45;1.35;;;;;;;25.71;28.26;97027.63;5015464;28;20120;-41
2021/01/11 03:07:09;;;;;;;2.60;1.70;;;;;;;25.69;28.23;97026.81;5010520;28;20048;-38
2021/01/11 03:09:42;;;;;;;2.67;1.80;;;;;;;25.71;28.26;97035.50;5020246;28;20550;-42
2021/01/11 03:12:09;;;;;;;2.35;1.80;;;;;;;25.71;28.29;97035.50;5016232;28;20543;-40
2021/01/11 03:14:35;;;;;;;1.73;1.60;;;;;;;25.69;28.35;97034.69;5014976;28;20590;-41
2021/01/11 03:17:00;;;;;;;2.20;1.60;;;;;;;25.70;28.06;97039.03;5013696;28;20037;-39
2021/01/11 03:19:26;;;;;;;1.70;1.60;;;;;;;25.68;28.37;97036.50;5016639;28;20048;-35
2021/01/11 03:21:52;;;;;;;2.35;1.70;;;;;;;25.69;28.26;97034.69;5016522;28;20037;-40
2021/01/11 03:24:18;;;;;;;2.85;1.70;;;;;;;25.65;28.19;97028.75;5014499;28;20025;-37
2021/01/11 03:26:43;;;;;;;3.20;1.70;;;;;;;25.65;28.26;97022.66;5015216;28;20096;-41
2021/01/11 03:29:10;;;;;;;1.70;1.60;;;;;;;25.64;28.39;97024.44;5018430;28;20112;-40
2021/01/11 03:31:36;;;;;;;2.08;1.77;;;;;;;25.52;28.43;97007.47;5014687;28;20553;-39
2021/01/11 03:34:02;;;;;;;2.65;1.90;;;;;;;25.63;28.47;97027.13;5016967;28;20053;-37
2021/01/11 03:36:29;;;;;;;1.85;1.73;;;;;;;25.63;28.20;97027.97;5011909;28;20076;-39
2021/01/11 03:38:55;;;;;;;1.75;1.65;;;;;;;25.62;28.22;97026.28;5018119;28;20468;-38
2021/01/11 03:41:20;;;;;;;2.20;1.80;;;;;;;25.59;28.34;97031.66;5014899;28;20044;-41
2021/01/11 03:43:46;;;;;;;1.70;1.45;;;;;;;25.56;28.44;97032.66;5014130;28;20061;-41
2021/01/11 03:46:13;;;;;;;1.40;1.30;;;;;;;25.57;28.64;97031.75;5017344;28;20042;-38
2021/01/11 03:48:38;;;;;;;1.80;1.60;;;;;;;25.59;28.42;97036.09;5015275;28;20037;-38
2021/01/11 03:51:04;;;;;;;1.70;1.50;;;;;;;25.57;28.39;97030.91;5017619;28;20517;-39
2021/01/11 03:53:30;;;;;;;1.30;1.20;;;;;;;25.56;28.36;97027.41;5004095;28;20057;-37
2021/01/11 03:55:56;;;;;;;1.73;1.52;;;;;;;25.56;28.56;97016.91;5016962;28;20392;-40
2021/01/11 03:58:22;;;;;;;1.52;1.42;;;;;;;25.56;28.40;97019.53;5012052;28;20048;-41
2021/01/11 04:00:48;;;;;;;1.92;1.55;;;;;;;25.55;28.55;97012.56;5016106;28;20034;-38
2021/01/11 04:03:14;;;;;;;1.88;1.67;;;;;;;25.56;28.31;97014.28;5016370;28;20037;-36
2021/01/11 04:05:46;;;;;;;3.38;1.70;;;;;;;25.56;28.34;97013.47;5012028;28;20765;-42
2021/01/11 04:08:13;;;;;;;2.30;1.60;;;;;;;25.45;28.54;97003.47;5029835;28;20046;-37
2021/01/11 04:10:38;;;;;;;1.75;1.45;;;;;;;25.54;28.48;97028.38;5013348;28;20395;-36
2021/01/11 04:13:04;;;;;;;1.85;1.60;;;;;;;25.55;28.34;97028.31;5021429;28;20132;-40
2021/01/11 04:15:30;;;;;;;1.90;1.38;;;;;;;25.52;28.34;97023.22;5017060;28;20987;-42
2021/01/11 04:17:56;;;;;;;2.60;1.58;;;;;;;25.52;28.39;97033.72;5020409;28;20037;-39
2021/01/11 04:20:23;;;;;;;1.98;1.50;;;;;;;25.51;28.60;97029.38;5017815;28;20110;-37
2021/01/11 04:22:48;;;;;;;1.55;1.42;;;;;;;25.52;28.47;97028.47;5021465;28;20625;-40
2021/01/11 04:25:15;;;;;;;1.70;1.60;;;;;;;25.52;28.50;97025.84;5016228;28;20090;-37
2021/01/11 04:27:55;;;;;;;1.38;1.20;;;;;;;25.55;28.37;97020.44;5018274;28;20399;-38
2021/01/11 04:30:22;;;;;;;1.98;1.60;;;;;;;25.55;28.38;97025.69;5016056;28;20048;-35
2021/01/11 04:32:48;;;;;;;1.60;1.40;;;;;;;25.53;28.39;97032.81;5010264;28;20042;-39
2021/01/11 04:35:14;;;;;;;5.68;1.83;;;;;;;25.57;28.20;97033.53;5015880;28;20040;-42
2021/01/11 04:37:41;;;;;;;1.60;1.25;;;;;;;25.56;28.43;97032.66;5038417;28;20652;-40
2021/01/11 04:40:07;;;;;;;1.50;1.40;;;;;;;25.56;28.35;97037.09;5021990;28;20503;-39
2021/01/11 04:42:51;;;;;;;2.22;1.50;;;;;;;25.55;28.44;97030.94;5039219;28;20046;-40
2021/01/11 04:45:18;;;;;;;3.10;1.80;;;;;;;25.55;28.25;97044.06;5024984;28;20514;-40
2021/01/11 04:47:44;;;;;;;1.77;1.55;;;;;;;25.54;28.32;97033.63;5024989;28;20079;-36
2021/01/11 04:50:10;;;;;;;1.70;1.40;;;;;;;25.55;28.25;97030.13;5025499;28;20068;-37
2021/01/11 04:52:37;;;;;;;2.10;1.90;;;;;;;25.59;28.24;97038.72;5022061;28;20481;-40
2021/01/11 04:55:05;;;;;;;1.65;1.55;;;;;;;25.60;28.06;97037.78;5037281;28;20549;-41
2021/01/11 04:57:34;;;;;;;2.40;1.65;;;;;;;25.56;27.96;97032.66;5026497;28;20557;-39
2021/01/11 05:00:03;;;;;;;1.50;1.40;;;;;;;25.60;28.17;97043.88;5025039;28;20041;-39
2021/01/11 05:02:29;;;;;;;1.60;1.50;;;;;;;25.61;28.08;97040.34;5018867;28;20084;-36
2021/01/11 05:04:54;;;;;;;1.50;1.30;;;;;;;25.60;28.10;97035.16;5019547;28;20053;-37
2021/01/11 05:07:21;;;;;;;1.60;1.50;;;;;;;25.59;28.12;97031.66;5034085;28;20045;-37
2021/01/11 05:09:47;;;;;;;1.50;1.40;;;;;;;25.60;28.23;97037.78;5019321;28;20037;-40
2021/01/11 05:12:16;;;;;;;1.60;1.50;;;;;;;25.61;28.00;97039.47;5023160;28;20037;-37
2021/01/11 05:14:42;;;;;;;1.52;1.30;;;;;;;25.61;28.21;97026.34;5020135;28;20045;-37
2021/01/11 05:17:10;;;;;;;1.73;1.50;;;;;;;25.60;28.31;97022.88;5017699;28;20045;-41
2021/01/11 05:19:36;;;;;;;3.33;1.48;;;;;;;25.61;28.33;97024.59;5020626;28;20124;-40
2021/01/11 05:22:02;;;;;;;2.03;1.60;;;;;;;25.63;28.20;97025.34;5021929;28;20073;-36
2021/01/11 05:24:39;;;;;;;3.13;1.40;;;;;;;25.63;28.07;97027.13;5021971;28;20049;-36
2021/01/11 05:27:08;;;;;;;3.97;1.70;;;;;;;25.63;28.07;97027.13;5019822;28;20635;-40
2021/01/11 05:29:34;;;;;;;1.50;1.40;;;;;;;25.63;27.87;97037.63;5024684;28;20097;-39
2021/01/11 05:32:01;;;;;;;2.70;1.70;;;;;;;25.62;28.02;97030.69;5022778;28;20049;-39
2021/01/11 05:34:59;;;;;;;1.80;1.50;;;;;;;25.65;27.96;97038.41;5022624;28;20076;-39
2021/01/11 05:37:38;;;;;;;2.28;1.52;;;;;;;25.62;28.16;97031.53;5003760;28;20084;-40
2021/01/11 05:40:05;;;;;;;1.90;1.60;;;;;;;25.60;28.27;97043.03;5022036;28;20033;-39
2021/01/11 05:42:30;;;;;;;1.60;1.50;;;;;;;25.59;28.10;97036.09;5023667;28;20056;-40
2021/01/11 05:45:15;;;;;;;2.58;1.60;;;;;;;25.60;28.13;97035.16;5032045;28;20733;-39
2021/01/11 05:48:06;;;;;;;8.55;1.55;;;;;;;25.61;28.03;97036.84;5023331;28;20087;-37
2021/01/11 05:50:38;;;;;;;2.08;1.63;;;;;;;25.57;27.99;97031.75;5022224;28;20037;-41
2021/01/11 05:53:04;;;;;;;1.52;1.42;;;;;;;25.63;28.18;97043.72;5026521;28;20120;-37
2021/01/11 05:55:33;;;;;;;2.30;1.52;;;;;;;25.64;28.06;97045.44;5025222;28;20718;-40
2021/01/11 05:58:02;;;;;;;1.98;1.60;;;;;;;25.64;28.01;97044.56;5019470;28;20115;-38
2021/01/11 06:00:31;;;;;;;1.40;1.30;;;;;;;25.65;27.97;97047.13;5023189;28;20455;-33
2021/01/11 06:02:58;;;;;;;1.50;1.40;;;;;;;25.64;27.86;97044.56;5019228;28;20145;-35
2021/01/11 06:05:24;;;;;;;1.30;1.20;;;;;;;25.65;27.89;97047.13;5021741;28;20048;-38
2021/01/11 06:07:50;;;;;;;1.55;1.38;;;;;;;25.64;27.83;97044.56;5022552;28;20041;-37
2021/01/11 06:10:16;;;;;;;2.13;1.58;;;;;;;25.66;27.91;97048.81;5016672;28;20049;-39
2021/01/11 06:12:43;;;;;;;1.67;1.30;;;;;;;25.63;27.80;97048.13;5021845;28;20038;-40
2021/01/11 06:15:11;;;;;;;2.13;1.50;;;;;;;25.67;27.99;97047.06;5021861;28;20033;-40
2021/01/11 06:17:37;;;;;;;2.28;1.70;;;;;;;25.65;28.12;97048.91;5023534;28;20134;-41
2021/01/11 06:20:03;;;;;;;1.30;1.20;;;;;;;25.66;28.09;97048.00;5021026;28;20068;-39
2021/01/11 06:22:44;;;;;;;1.88;1.63;;;;;;;25.67;27.69;97042.66;5021629;28;20141;-37
2021/01/11 06:25:33;;;;;;;1.77;1.35;;;;;;;25.66;28.04;97040.13;5019315;28;20037;-38
2021/01/11 06:27:58;;;;;;;1.98;1.58;;;;;;;25.65;27.85;97035.78;5015601;28;20061;-41
2021/01/11 06:30:32;;;;;;;1.60;1.45;;;;;;;25.68;27.83;97035.63;5020662;28;20079;-40
2021/01/11 06:32:59;;;;;;;3.97;1.40;;;;;;;25.61;28.01;97026.34;5020916;28;20047;-40
2021/01/11 06:35:29;;;;;;;1.38;1.27;;;;;;;25.65;27.91;97030.53;5038011;28;20076;-39
2021/01/11 06:38:21;;;;;;;1.65;1.40;;;;;;;25.66;27.88;97027.00;5020982;28;20470;-41
2021/01/11 06:41:01;;;;;;;2.33;1.60;;;;;;;25.65;28.06;97033.16;5022203;28;20179;-38
2021/01/11 06:43:28;;;;;;;2.25;1.75;;;;;;;25.63;27.99;97035.00;5023809;28;20064;-38
2021/01/11 06:45:53;;;;;;;1.88;1.60;;;;;;;25.61;28.25;97034.22;5033354;28;20502;-38
2021/01/11 06:48:19;;;;;;;2.08;1.50;;;;;;;25.61;27.99;97028.97;5036457;28;20041;-40
2021/01/11 06:50:46;;;;;;;1.70;1.60;;;;;;;25.64;27.97;97028.84;5023900;28;20574;-40
2021/01/11 06:53:13;;;;;;;1.65;1.55;;;;;;;25.65;27.93;97030.53;5036280;28;20041;-39
2021/01/11 06:55:39;;;;;;;2.15;1.70;;;;;;;25.63;27.70;97032.38;5036857;28;20529;-38
2021/01/11 06:58:05;;;;;;;1.98;1.58;;;;;;;25.65;27.90;97027.91;5018957;28;20080;-37
2021/01/11 07:00:39;;;;;;;3.28;1.58;;;;;;;25.65;27.80;97031.38;5019671;28;20068;-35
2021/01/11 07:03:06;;;;;;;2.00;1.70;;;;;;;25.64;27.97;97039.31;5019636;28;20041;-38
2021/01/11 07:05:37;;;;;;;2.08;1.40;;;;;;;25.65;27.36;97039.25;5020615;28;20087;-39
2021/01/11 07:08:23;;;;;;;2.33;1.83;;;;;;;25.67;27.95;97049.69;5022322;28;20026;-41
2021/01/11 07:11:01;;;;;;;2.25;1.60;;;;;;;25.61;27.94;97052.59;5031454;28;20037;-38
2021/01/11 07:13:27;;;;;;;1.98;1.67;;;;;;;25.62;27.84;97035.94;5034046;28;20045;-41
2021/01/11 07:15:53;;;;;;;6.65;1.92;;;;;;;25.63;27.25;97048.13;5023775;28;20495;-40
2021/01/11 07:18:36;;;;;;;4.13;1.73;;;;;;;25.55;27.78;97057.19;5022116;28;20029;-39
2021/01/11 07:21:09;;;;;;;2.65;1.70;;;;;;;25.52;27.77;97046.81;5017961;28;20030;-38
2021/01/11 07:23:36;;;;;;;3.50;2.45;;;;;;;25.45;26.31;97045.44;5014596;28;20495;-38
2021/01/11 07:26:18;;;;;;;2.50;2.15;;;;;;;25.40;27.42;97044.81;5022350;28;20041;-37
2021/01/11 07:28:56;;;;;;;2.30;2.10;;;;;;;25.43;27.20;97042.88;5013765;28;20038;-38
2021/01/11 07:31:23;;;;;;;2.60;2.20;;;;;;;25.37;27.03;97042.31;5019948;28;20079;-39
2021/01/11 07:34:06;;;;;;;3.25;2.30;;;;;;;25.31;27.05;97044.31;5024119;28;20034;-38
2021/01/11 07:36:42;;;;;;;5.15;2.13;;;;;;;25.29;27.28;97040.91;5021484;28;20033;-42
2021/01/11 07:44:14;;;;;;;2.95;2.17;;;;;;;25.42;27.48;97058.69;5001433;28;20042;-34
2021/01/11 07:46:40;;;;;;;6.15;2.38;;;;;;;25.49;27.57;97061.88;5002213;28;20103;-34
2021/01/11 07:49:15;;;;;;;3.47;2.08;;;;;;;25.52;27.55;97067.81;5006281;28;20513;-34
2021/01/11 07:51:41;;;;;;;8.30;2.33;;;;;;;25.52;27.52;97062.56;5001573;23;20016;-34
2021/01/11 07:54:14;;;;;;;6.85;4.45;;;;;;;25.54;23.79;97063.38;5004528;28;20038;-30
2021/01/11 07:56:41;;;;;;;9.75;5.40;;;;;;;25.50;21.09;97063.56;5019543;28;20144;-31
2021/01/11 07:59:06;;;;;;;3.72;2.50;;;;;;;25.48;26.62;97055.78;5010476;28;20033;-33
2021/01/11 08:01:33;;;;;;;3.47;2.33;;;;;;;25.50;26.99;97067.06;5021727;28;20088;-31
2021/01/11 08:03:59;;;;;;;3.35;2.33;;;;;;;25.49;27.16;97067.97;5022144;28;20027;-32
2021/01/11 08:06:25;;;;;;;3.90;2.20;;;;;;;25.52;27.32;97078.31;5010263;28;20068;-32
2021/01/11 08:08:52;;;;;;;3.25;2.30;;;;;;;25.56;27.22;97068.56;5034151;28;20025;-32
2021/01/11 08:11:17;;;;;;;3.58;2.10;;;;;;;25.61;27.09;97087.56;5028285;28;20021;-31
2021/01/11 08:13:44;;;;;;;2.50;1.90;;;;;;;25.61;27.42;97089.34;5031222;28;20092;-29
2021/01/11 08:16:13;;;;;;;5.15;2.20;;;;;;;25.62;26.97;97096.31;5030817;28;20021;-31
2021/01/11 08:18:39;;;;;;;5.07;2.25;;;;;;;25.64;27.39;97092.69;5039033;22;20041;-65
2021/01/11 08:21:09;;;;;;;3.05;2.05;;;;;;;25.61;27.33;97097.19;5003577;28;20041;-66
2021/01/11 08:23:35;;;;;;;4.13;2.22;;;;;;;25.52;27.13;97088.81;4988673;28;20522;-66
2021/01/11 08:26:04;;;;;;;1.88;1.67;;;;;;;25.46;27.54;97099.59;5009373;28;20034;-65
2021/01/11 08:28:30;;;;;;;3.67;2.42;;;;;;;25.39;27.74;97103.44;4994174;28;20038;-67
2021/01/11 08:31:00;;;;;;;5.75;2.40;;;;;;;25.36;27.67;97104.44;4972789;28;20036;-66
2021/01/11 08:33:26;;;;;;;3.22;2.28;;;;;;;25.34;27.53;97095.78;4969707;28;20026;-66
2021/01/11 08:35:51;;;;;;;4.38;2.55;;;;;;;25.28;24.89;97069.84;5007441;28;20060;-66
2021/01/11 08:38:17;;;;;;;2.63;2.10;;;;;;;25.42;27.82;97077.06;4990244;28;20050;-67
2021/01/11 08:40:45;;;;;;;3.88;1.98;;;;;;;25.56;27.50;97087.78;4990825;28;20026;-67
2021/01/11 08:43:13;;;;;;;3.72;1.85;;;;;;;25.60;27.49;97079.75;5004701;28;20034;-66
2021/01/11 08:45:39;;;;;;;3.75;2.10;;;;;;;25.76;27.22;97086.00;4993570;28;20100;-67
2021/01/11 08:48:05;;;;;;;3.25;2.28;;;;;;;25.85;27.15;97081.22;5016335;28;20487;-65
2021/01/11 08:50:41;;;;;;;4.70;1.98;;;;;;;25.86;27.02;97069.78;5006152;28;20040;-66
2021/01/11 08:53:17;;;;;;;2.90;2.03;;;;;;;25.97;26.85;97077.97;4982562;28;20026;-67
2021/01/11 08:55:52;;;;;;;2.55;1.98;;;;;;;25.99;27.30;97076.13;5008510;28;20767;-66
2021/01/11 08:58:17;;;;;;;3.25;2.05;;;;;;;26.03;27.32;97080.31;5007912;28;20030;-67
2021/01/11 09:00:43;;;;;;;2.63;1.95;;;;;;;26.07;27.22;97086.25;5009404;28;20033;-67
2021/01/11 09:03:08;;;;;;;2.35;2.05;;;;;;;26.02;27.43;97073.34;5002023;28;20104;-66
2021/01/11 09:05:34;;;;;;;4.25;2.60;;;;;;;26.12;27.12;97070.28;4987226;28;20022;-66
2021/01/11 09:08:17;;;;;;;4.10;2.50;;;;;;;26.10;27.18;97063.28;4996901;28;20099;-66
2021/01/11 09:10:43;;;;;;;4.22;2.38;;;;;;;26.17;27.13;97063.00;4993688;28;20098;-66
2021/01/11 09:13:15;;;;;;;3.95;2.20;;;;;;;26.22;26.82;97076.75;4994511;28;20034;-67
2021/01/11 09:15:41;;;;;;;4.82;2.75;;;;;;;26.23;27.29;97081.94;5011992;28;20491;-67
2021/01/11 09:18:07;;;;;;;5.47;2.13;;;;;;;26.20;26.93;97078.63;5008183;28;20092;-67
2021/01/11 09:24:32;;;;;;;11.88;2.78;;;;;;;26.08;27.20;97086.19;5010675;28;20044;-67
2021/01/11 09:26:58;;;;;;;5.78;2.38;;;;;;;26.05;27.23;97096.00;4326271;22;10000748;-44
2021/01/11 09:29:24;;;;;;;7.05;2.70;;;;;;;26.12;27.56;97105.25;5029358;28;20021;-37
2021/01/11 09:31:50;;;;;;;6.38;2.50;;;;;;;26.19;26.97;97108.41;5028521;28;20110;-39
2021/01/11 09:34:16;;;;;;;7.45;2.55;;;;;;;26.28;26.87;97117.66;5036591;22;20136;-71
2021/01/11 09:36:45;;;;;;;5.40;2.50;;;;;;;26.25;26.94;97110.75;4667298;28;9999830;-70
2021/01/11 09:39:10;;;;;;;4.82;2.60;;;;;;;26.16;27.08;97087.59;5013209;28;20140;-67
2021/01/11 09:41:40;;;;;;;4.28;2.38;;;;;;;26.31;27.33;97102.59;4977971;28;20094;-67
2021/01/11 09:44:06;;;;;;;4.70;2.30;;;;;;;26.31;27.81;97107.00;4981375;28;20100;-68
2021/01/11 09:46:39;;;;;;;3.28;2.22;;;;;;;26.13;28.35;97087.72;4984919;28;20037;-72
2021/01/11 09:49:04;;;;;;;11.75;2.50;;;;;;;25.91;29.01;97099.28;4975038;28;20057;-70
2021/01/11 09:51:30;;;;;;;4.90;2.63;;;;;;;25.65;29.10;97093.50;4980344;28;20033;-73
2021/01/11 09:53:56;;;;;;;5.00;2.90;;;;;;;25.64;29.79;97104.94;4979558;28;20041;-70
2021/01/11 09:56:21;;;;;;;3.53;2.20;;;;;;;25.66;29.85;97110.97;4977957;28;20030;-71
2021/01/11 09:58:47;;;;;;;5.72;2.28;;;;;;;25.72;29.82;97100.19;4963445;28;20032;-70
2021/01/11 10:01:12;;;;;;;6.00;2.78;;;;;;;25.81;29.87;97098.88;4964511;28;20132;-71
2021/01/11 10:03:38;;;;;;;4.05;2.38;;;;;;;25.94;29.31;97093.91;4966954;28;20045;-71
2021/01/11 10:06:05;;;;;;;4.63;2.50;;;;;;;26.07;29.30;97094.13;4961166;28;20041;-70
2021/01/11 10:08:32;;;;;;;3.30;2.00;;;;;;;26.19;29.17;97101.41;4978199;28;20757;-69
2021/01/11 10:10:58;;;;;;;9.70;2.22;;;;;;;26.34;28.90;97101.59;4982616;28;20037;-71
2021/01/11 10:13:23;;;;;;;4.15;1.80;;;;;;;26.50;28.37;97106.91;4966647;28;20045;-71
2021/01/11 10:15:50;;;;;;;8.00;2.05;;;;;;;26.61;28.51;97109.84;4948949;28;20746;-73
2021/01/11 10:18:16;;;;;;;2.60;1.88;;;;;;;26.75;28.13;97110.91;4961756;28;20122;-69
2021/01/11 10:20:43;;;;;;;11.50;2.42;;;;;;;26.82;28.17;97098.28;4961138;28;20041;-68
2021/01/11 10:23:08;;;;;;;3.08;2.08;;;;;;;26.80;28.94;97087.84;4990772;28;20729;-73
2021/01/11 10:25:34;;;;;;;5.38;2.00;;;;;;;26.96;28.12;97098.44;4951063;28;20041;-70
2021/01/11 10:27:59;;;;;;;3.85;1.80;;;;;;;26.99;27.72;97086.91;4964393;28;20045;-69
2021/01/11 10:30:25;;;;;;;3.80;2.35;;;;;;;26.99;27.62;97084.25;4957807;28;20105;-69
2021/01/11 10:32:51;;;;;;;3.75;2.15;;;;;;;27.00;27.83;97073.66;4962122;28;20095;-69
2021/01/11 10:35:16;;;;;;;3.17;2.17;;;;;;;27.03;27.81;97083.16;4957433;28;20269;-69
2021/01/11 10:37:42;;;;;;;3.53;2.00;;;;;;;27.05;27.58;97075.22;4957893;28;20708;-69
2021/01/11 10:40:08;;;;;;;3.72;2.10;;;;;;;27.09;27.31;97072.34;4977567;28;20039;-69
2021/01/11 10:42:33;;;;;;;4.45;2.00;;;;;;;27.10;27.37;97074.03;4964631;28;20333;-70
2021/01/11 10:44:59;;;;;;;3.05;2.20;;;;;;;27.18;27.47;97072.75;4985138;28;20044;-70
2021/01/11 10:47:24;;;;;;;3.63;2.13;;;;;;;27.20;27.46;97063.00;4960440;28;20038;-69
2021/01/11 10:49:50;;;;;;;6.28;1.98;;;;;;;27.22;27.41;97061.13;4959854;28;20037;-69
2021/01/11 10:52:15;;;;;;;4.00;1.98;;;;;;;27.21;27.45;97048.91;4959401;28;20037;-70
2021/01/11 10:54:41;;;;;;;4.45;2.20;;;;;;;27.23;27.33;97047.06;4960065;28;20483;-69
2021/01/11 10:57:06;;;;;;;4.30;2.40;;;;;;;27.26;27.06;97045.09;4976554;28;20033;-69
2021/01/11 10:59:32;;;;;;;6.03;2.10;;;;;;;27.29;28.23;97040.59;4977329;28;20040;-70
2021/01/11 11:01:57;;;;;;;4.68;1.90;;;;;;;27.37;28.28;97039.25;4975085;28;20094;-75
2021/01/11 11:04:23;;;;;;;2.85;1.85;;;;;;;27.37;27.43;97028.72;4959104;28;20059;-72
2021/01/11 11:06:49;;;;;;;2.25;1.98;;;;;;;27.39;28.32;97026.84;4962924;28;20038;-72
2021/01/11 11:09:15;;;;;;;3.78;2.08;;;;;;;27.32;28.89;97020.22;4958605;28;20046;-77
2021/01/11 11:11:40;;;;;;;7.63;1.95;;;;;;;27.35;28.92;97019.22;4962445;28;20033;-72
2021/01/11 11:14:06;;;;;;;11.50;1.83;;;;;;;27.50;28.57;97033.28;4957425;28;20727;-72
2021/01/11 11:16:31;;;;;;;6.68;1.85;;;;;;;27.52;27.60;97020.88;4984713;28;20033;-78
2021/01/11 11:18:57;;;;;;;2.75;2.20;;;;;;;27.59;27.31;97022.25;4973138;28;20045;-76
2021/01/11 11:21:22;;;;;;;7.25;1.92;;;;;;;27.61;27.40;97023.03;4957829;28;20442;-77
2021/01/11 11:23:48;;;;;;;3.97;2.10;;;;;;;27.57;27.46;97003.03;4966073;28;20033;-76
2021/01/11 11:26:19;;;;;;;2.85;1.60;;;;;;;27.58;27.32;97015.25;4958821;28;20754;-76
2021/01/11 11:28:44;;;;;;;3.45;2.08;;;;;;;27.49;27.43;97010.53;4999417;28;20052;-76
2021/01/11 11:31:09;;;;;;;4.72;1.88;;;;;;;27.53;27.53;97022.56;4978774;28;20565;-73
2021/01/11 11:33:36;;;;;;;4.60;1.85;;;;;;;27.49;27.35;97023.69;4964817;28;20033;-73
2021/01/11 11:36:04;;;;;;;3.13;1.67;;;;;;;27.45;27.63;97009.00;4991190;28;20548;-75
2021/01/11 11:38:30;;;;;;;2.25;1.83;;;;;;;27.49;27.90;97026.31;4957757;28;20053;-75
2021/01/11 11:40:55;;;;;;;1.85;1.65;;;;;;;27.50;27.70;97028.84;4939956;28;20052;-76
2021/01/11 11:43:21;;;;;;;2.38;1.50;;;;;;;27.51;28.14;97029.72;4973082;28;20564;-77
2021/01/11 11:45:46;;;;;;;2.45;1.60;;;;;;;27.39;27.35;97023.38;4974565;28;20056;-75
2021/01/11 11:48:12;;;;;;;3.53;1.70;;;;;;;27.26;27.75;97025.81;4986880;28;20659;-75